createdAt,value
2023-01-31T00:00:07.666Z,2.27
2023-01-31T00:02:53.705Z,2.28
2023-01-31T00:05:38.891Z,2.28
2023-01-31T00:08:24.107Z,1.85
2023-01-31T00:11:10.297Z,2.19
2023-01-31T00:13:55.439Z,2.15
2023-01-31T00:16:40.375Z,2.09
2023-01-31T00:19:29.466Z,2.04
2023-01-31T00:22:14.706Z,2.21
2023-01-31T00:24:59.498Z,2.22
2023-01-31T00:27:44.186Z,2.12
2023-01-31T00:30:30.339Z,2.06
2023-01-31T00:33:15.652Z,2.09
2023-01-31T00:36:02.913Z,2.18
2023-01-31T00:38:49.291Z,2.18
2023-01-31T00:41:36.087Z,2.18
2023-01-31T00:44:21.459Z,1.96
2023-01-31T00:47:06.353Z,2.14
2023-01-31T00:49:53.530Z,2.26
2023-01-31T00:52:38.741Z,1.79
2023-01-31T00:55:23.596Z,1.94
2023-01-31T00:58:08.610Z,2.02
2023-01-31T01:00:53.674Z,2.07
2023-01-31T01:03:40.224Z,2.05
2023-01-31T01:06:25.492Z,2.39
2023-01-31T01:09:10.264Z,2.30
2023-01-31T01:11:56.397Z,2.28
2023-01-31T01:14:41.534Z,2.41
2023-01-31T01:17:26.356Z,2.20
2023-01-31T01:20:11.281Z,2.29
2023-01-31T01:22:57.296Z,1.87
2023-01-31T01:25:42.638Z,2.07
2023-01-31T01:28:29.052Z,2.29
2023-01-31T01:31:14.359Z,2.27
2023-01-31T01:33:59.611Z,2.02
2023-01-31T01:36:47.529Z,2.05
2023-01-31T01:39:35.134Z,1.76
2023-01-31T01:42:23.830Z,2.23
2023-01-31T01:45:09.081Z,2.25
2023-01-31T01:48:01.401Z,1.77
2023-01-31T01:50:46.391Z,2.12
2023-01-31T01:53:31.852Z,1.66
2023-01-31T01:56:19.044Z,2.21
2023-01-31T01:59:05.531Z,2.40
2023-01-31T02:01:50.645Z,2.63
2023-01-31T02:04:36.071Z,2.70
2023-01-31T02:07:23.292Z,2.59
2023-01-31T02:10:08.476Z,2.58
2023-01-31T02:12:53.338Z,2.65
2023-01-31T02:15:38.296Z,2.48
2023-01-31T02:18:23.228Z,1.79
2023-01-31T02:21:08.171Z,2.18
2023-01-31T02:23:52.993Z,2.18
2023-01-31T02:26:37.864Z,2.09
2023-01-31T02:29:22.967Z,2.30
2023-01-31T02:32:10.654Z,2.39
2023-01-31T02:35:00.486Z,2.42
2023-01-31T02:37:47.999Z,2.55
2023-01-31T02:40:34.187Z,2.57
2023-01-31T02:43:21.689Z,2.52
2023-01-31T02:46:06.831Z,2.21
2023-01-31T02:48:51.604Z,2.09
2023-01-31T02:51:37.834Z,2.43
2023-01-31T02:54:23.005Z,2.34
2023-01-31T02:57:18.185Z,2.43
2023-01-31T03:00:03.340Z,2.40
2023-01-31T03:02:48.477Z,2.43
2023-01-31T03:05:33.240Z,2.65
2023-01-31T03:08:18.627Z,2.39
2023-01-31T03:11:03.603Z,2.32
2023-01-31T03:13:49.735Z,2.01
2023-01-31T03:16:37.800Z,2.51
2023-01-31T03:19:22.952Z,2.34
2023-01-31T03:22:07.840Z,2.56
2023-01-31T03:24:53.858Z,2.02
2023-01-31T03:27:39.094Z,2.31
2023-01-31T03:30:23.910Z,2.06
2023-01-31T03:33:08.731Z,2.07
2023-01-31T03:35:53.603Z,2.11
2023-01-31T03:38:40.851Z,2.28
2023-01-31T03:41:29.753Z,2.21
2023-01-31T03:44:17.376Z,2.01
2023-01-31T03:47:03.806Z,2.03
2023-01-31T03:49:48.886Z,2.22
2023-01-31T03:52:36.592Z,1.83
2023-01-31T03:55:22.296Z,2.47
2023-01-31T03:58:07.222Z,2.73
2023-01-31T04:00:59.513Z,2.62
2023-01-31T04:03:44.664Z,2.35
2023-01-31T04:06:33.788Z,2.46
2023-01-31T04:09:26.411Z,2.03
2023-01-31T04:12:11.575Z,1.61
2023-01-31T04:14:59.040Z,1.65
2023-01-31T04:17:44.192Z,1.94
2023-01-31T04:20:30.172Z,2.22
2023-01-31T04:23:16.616Z,2.04
2023-01-31T04:26:01.801Z,2.11
2023-01-31T04:28:46.625Z,2.19
2023-01-31T04:31:32.415Z,2.01
2023-01-31T04:34:17.442Z,2.41
2023-01-31T04:37:02.457Z,1.94
2023-01-31T04:39:47.173Z,2.02
2023-01-31T04:42:32.142Z,1.97
2023-01-31T04:45:20.921Z,2.07
2023-01-31T04:48:05.800Z,2.09
2023-01-31T04:50:50.731Z,1.95
2023-01-31T04:53:35.574Z,1.93
2023-01-31T04:56:20.608Z,2.02
2023-01-31T04:59:05.451Z,2.04
2023-01-31T05:01:50.322Z,1.97
2023-01-31T05:04:35.228Z,1.77
2023-01-31T05:07:21.305Z,1.51
2023-01-31T05:10:06.598Z,1.67
2023-01-31T05:12:51.483Z,1.78
2023-01-31T05:15:36.393Z,1.94
2023-01-31T05:18:21.263Z,1.98
2023-01-31T05:21:06.345Z,1.96
2023-01-31T05:23:51.112Z,1.81
2023-01-31T05:26:36.112Z,1.79
2023-01-31T05:29:21.308Z,1.60
2023-01-31T05:32:07.404Z,1.54
2023-01-31T05:34:52.540Z,1.52
2023-01-31T05:37:37.308Z,1.62
2023-01-31T05:40:22.261Z,1.47
2023-01-31T05:43:07.185Z,1.54
2023-01-31T05:45:52.263Z,1.71
2023-01-31T05:48:37.492Z,1.56
2023-01-31T05:51:22.379Z,1.59
2023-01-31T05:54:07.321Z,1.67
2023-01-31T05:56:52.227Z,1.55
2023-01-31T05:59:37.238Z,1.32
2023-01-31T06:02:22.098Z,1.49
2023-01-31T06:05:07.052Z,1.77
2023-01-31T06:07:54.289Z,1.40
2023-01-31T06:10:39.233Z,1.18
2023-01-31T06:13:24.388Z,1.26
2023-01-31T06:16:09.234Z,1.35
2023-01-31T06:18:54.082Z,1.25
2023-01-31T06:21:40.142Z,1.31
2023-01-31T06:24:25.302Z,1.40
2023-01-31T06:27:11.484Z,1.39
2023-01-31T06:29:56.686Z,1.39
2023-01-31T06:32:45.162Z,1.32
2023-01-31T06:35:32.909Z,1.20
2023-01-31T06:38:22.183Z,1.19
2023-01-31T06:41:07.188Z,1.08
2023-01-31T06:43:55.256Z,1.25
2023-01-31T06:46:41.694Z,1.27
2023-01-31T06:49:30.485Z,1.33
2023-01-31T06:52:15.420Z,1.02
2023-01-31T06:55:02.483Z,1.04
2023-01-31T06:57:47.657Z,1.30
2023-01-31T07:00:34.460Z,1.31
2023-01-31T07:03:19.501Z,1.39
2023-01-31T07:06:04.365Z,1.56
2023-01-31T07:08:49.374Z,1.68
2023-01-31T07:11:37.411Z,1.37
2023-01-31T07:14:23.698Z,1.37
2023-01-31T07:17:09.083Z,1.49
2023-01-31T07:19:53.922Z,1.40
2023-01-31T07:22:38.805Z,1.33
2023-01-31T07:25:31.149Z,1.67
2023-01-31T07:28:15.983Z,1.48
2023-01-31T07:31:01.025Z,1.30
2023-01-31T07:33:45.908Z,1.65
2023-01-31T07:36:32.389Z,1.27
2023-01-31T07:39:17.401Z,1.48
2023-01-31T07:42:05.987Z,1.37
2023-01-31T07:44:51.280Z,1.80
2023-01-31T07:47:38.101Z,1.98
2023-01-31T07:50:24.893Z,2.10
2023-01-31T07:53:09.966Z,2.15
2023-01-31T07:55:57.212Z,2.29
2023-01-31T07:58:44.687Z,2.66
2023-01-31T08:01:31.901Z,2.66
2023-01-31T08:04:22.367Z,2.97
2023-01-31T08:07:07.697Z,3.01
2023-01-31T08:09:52.477Z,2.57
2023-01-31T08:12:37.459Z,2.33
2023-01-31T08:15:22.530Z,2.56
2023-01-31T08:18:07.834Z,2.99
2023-01-31T08:20:53.857Z,3.38
2023-01-31T08:23:39.189Z,3.02
2023-01-31T08:26:24.125Z,3.63
2023-01-31T08:29:09.015Z,3.71
2023-01-31T08:31:53.925Z,3.63
2023-01-31T08:34:38.742Z,3.39
2023-01-31T08:37:24.807Z,3.53
2023-01-31T08:40:09.898Z,3.90
2023-01-31T08:42:54.868Z,4.01
2023-01-31T08:45:39.851Z,3.64
2023-01-31T08:48:25.976Z,4.14
2023-01-31T08:51:11.164Z,3.57
2023-01-31T08:53:55.879Z,3.94
2023-01-31T08:56:41.028Z,3.45
2023-01-31T08:59:25.772Z,3.09
2023-01-31T09:02:10.702Z,3.60
2023-01-31T09:04:55.507Z,3.60
2023-01-31T09:07:40.336Z,3.18
2023-01-31T09:10:25.413Z,3.70
2023-01-31T09:13:13.536Z,3.75
2023-01-31T09:15:58.786Z,3.97
2023-01-31T09:18:43.615Z,4.54
2023-01-31T09:21:31.162Z,4.67
2023-01-31T09:24:16.347Z,4.77
2023-01-31T09:27:02.423Z,4.74
2023-01-31T09:29:47.759Z,5.10
2023-01-31T09:32:33.833Z,4.83
2023-01-31T09:35:19.357Z,4.60
2023-01-31T09:38:04.274Z,5.38
2023-01-31T09:40:48.928Z,5.37
2023-01-31T09:43:33.765Z,5.36
2023-01-31T09:46:18.635Z,5.61
2023-01-31T09:49:05.976Z,5.08
2023-01-31T09:51:51.137Z,4.87
2023-01-31T09:54:36.375Z,5.39
2023-01-31T09:57:21.384Z,5.52
2023-01-31T10:00:07.527Z,5.49
2023-01-31T10:02:52.807Z,5.43
2023-01-31T10:05:37.755Z,5.99
2023-01-31T10:08:22.428Z,5.84
2023-01-31T10:11:07.346Z,5.93
2023-01-31T10:13:52.214Z,5.21
2023-01-31T10:16:37.083Z,5.78
2023-01-31T10:19:21.814Z,6.20
2023-01-31T10:22:06.652Z,6.38
2023-01-31T10:24:52.785Z,6.39
2023-01-31T10:27:38.079Z,6.61
2023-01-31T10:30:24.510Z,6.31
2023-01-31T10:36:13.108Z,6.03
2023-01-31T10:38:58.422Z,6.31
2023-01-31T10:41:45.623Z,6.44
2023-01-31T10:44:32.520Z,6.96
2023-01-31T10:47:17.667Z,7.18
2023-01-31T10:50:02.593Z,7.24
2023-01-31T10:52:49.786Z,6.98
2023-01-31T10:55:38.585Z,7.59
2023-01-31T10:58:23.596Z,7.32
2023-01-31T11:01:08.511Z,7.91
2023-01-31T11:03:53.304Z,7.51
2023-01-31T11:06:38.225Z,7.71
2023-01-31T11:09:23.106Z,7.88
2023-01-31T11:12:08.075Z,7.66
2023-01-31T11:14:54.044Z,7.50
2023-01-31T11:17:41.816Z,6.80
2023-01-31T11:20:27.007Z,7.29
2023-01-31T11:23:13.603Z,7.33
2023-01-31T11:25:58.767Z,7.96
2023-01-31T11:28:46.126Z,8.17
2023-01-31T11:31:31.284Z,8.80
2023-01-31T11:34:16.405Z,8.74
2023-01-31T11:37:01.396Z,9.10
2023-01-31T11:39:46.200Z,9.01
2023-01-31T11:42:31.355Z,9.04
2023-01-31T11:45:16.205Z,8.64
2023-01-31T11:48:01.040Z,7.70
2023-01-31T11:50:48.881Z,8.99
2023-01-31T11:53:34.338Z,7.66
2023-01-31T11:56:19.826Z,7.33
2023-01-31T11:59:04.661Z,7.39
2023-01-31T12:01:49.707Z,8.54
2023-01-31T12:04:35.913Z,7.99
2023-01-31T12:07:22.428Z,7.17
2023-01-31T12:10:09.450Z,7.91
2023-01-31T12:12:54.503Z,8.07
2023-01-31T12:15:39.429Z,8.46
2023-01-31T12:18:25.413Z,7.95
2023-01-31T12:21:15.399Z,9.01
2023-01-31T12:24:00.620Z,8.33
2023-01-31T12:26:45.643Z,8.28
2023-01-31T12:29:30.497Z,8.53
2023-01-31T12:32:15.528Z,8.15
2023-01-31T12:35:04.100Z,7.67
2023-01-31T12:37:51.108Z,7.73
2023-01-31T12:40:36.027Z,7.97
2023-01-31T12:43:23.796Z,8.22
2023-01-31T12:46:08.868Z,9.11
2023-01-31T12:48:53.863Z,8.43
2023-01-31T12:51:42.958Z,9.37
2023-01-31T12:54:28.288Z,8.97
2023-01-31T12:57:13.193Z,10.05
2023-01-31T12:59:58.071Z,9.14
2023-01-31T13:02:44.208Z,8.50
2023-01-31T13:05:29.364Z,9.15
2023-01-31T13:08:15.545Z,9.89
2023-01-31T13:11:00.720Z,10.24
2023-01-31T13:13:45.621Z,10.61
2023-01-31T13:16:30.566Z,10.58
2023-01-31T13:19:15.416Z,10.70
2023-01-31T13:22:00.495Z,10.99
2023-01-31T13:24:48.216Z,11.35
2023-01-31T13:27:33.429Z,10.73
2023-01-31T13:30:20.336Z,9.70
2023-01-31T13:33:10.173Z,10.48
2023-01-31T13:35:57.653Z,10.26
2023-01-31T13:38:42.630Z,10.20
2023-01-31T13:41:27.517Z,8.94
2023-01-31T13:44:14.273Z,8.93
2023-01-31T13:47:01.808Z,8.57
2023-01-31T13:49:46.729Z,9.51
2023-01-31T13:52:31.676Z,10.44
2023-01-31T13:55:17.843Z,11.25
2023-01-31T13:58:02.934Z,11.58
2023-01-31T14:00:49.072Z,12.34
2023-01-31T14:03:35.332Z,12.98
2023-01-31T14:06:24.021Z,13.60
2023-01-31T14:09:09.372Z,13.30
2023-01-31T14:11:54.122Z,13.60
2023-01-31T14:14:39.107Z,12.19
2023-01-31T14:17:24.413Z,11.26
2023-01-31T14:20:09.372Z,9.78
2023-01-31T14:22:54.243Z,9.52
2023-01-31T14:25:39.121Z,8.20
2023-01-31T14:28:25.587Z,9.24
2023-01-31T14:31:11.518Z,9.47
2023-01-31T14:33:56.989Z,8.42
2023-01-31T14:36:41.869Z,8.34
2023-01-31T14:39:26.805Z,8.22
2023-01-31T14:42:13.457Z,7.77
2023-01-31T14:44:58.497Z,7.98
2023-01-31T14:47:43.367Z,8.23
2023-01-31T14:50:30.586Z,7.04
2023-01-31T14:53:15.702Z,7.52
2023-01-31T14:56:00.610Z,7.90
2023-01-31T14:58:45.512Z,7.23
2023-01-31T15:01:31.767Z,7.02
2023-01-31T15:04:18.033Z,7.19
2023-01-31T15:07:03.130Z,7.24
2023-01-31T15:09:48.212Z,7.05
2023-01-31T15:12:35.406Z,7.43
2023-01-31T15:15:20.651Z,7.45
2023-01-31T15:18:05.831Z,6.80
2023-01-31T15:20:50.630Z,6.72
2023-01-31T15:23:37.911Z,6.76
2023-01-31T15:26:23.019Z,6.63
2023-01-31T15:29:10.386Z,6.41
2023-01-31T15:31:55.546Z,6.43
2023-01-31T15:34:40.238Z,6.45
2023-01-31T15:37:25.273Z,6.53
2023-01-31T15:40:10.028Z,6.04
2023-01-31T15:42:54.981Z,5.91
2023-01-31T15:45:39.793Z,6.22
2023-01-31T15:48:24.756Z,6.33
2023-01-31T15:51:12.048Z,6.14
2023-01-31T15:53:57.136Z,5.77
2023-01-31T15:56:42.607Z,5.73
2023-01-31T15:59:27.369Z,5.82
2023-01-31T16:02:12.370Z,5.54
2023-01-31T16:04:57.708Z,5.65
2023-01-31T16:07:43.970Z,5.58
2023-01-31T16:10:29.194Z,5.51
2023-01-31T16:13:13.932Z,5.51
2023-01-31T16:15:58.745Z,5.53
2023-01-31T16:18:43.583Z,5.19
2023-01-31T16:21:28.693Z,5.21
2023-01-31T16:24:15.961Z,5.25
2023-01-31T16:27:01.081Z,5.54
2023-01-31T16:29:46.067Z,5.25
2023-01-31T16:32:32.171Z,5.67
2023-01-31T16:35:17.382Z,5.20
2023-01-31T16:38:08.578Z,5.37
2023-01-31T16:40:56.125Z,5.15
2023-01-31T16:43:41.152Z,5.33
2023-01-31T16:46:27.332Z,5.12
2023-01-31T16:49:12.394Z,4.80
2023-01-31T16:51:57.357Z,4.80
2023-01-31T16:54:42.216Z,4.66
2023-01-31T16:57:27.102Z,4.76
2023-01-31T17:00:12.045Z,4.81
2023-01-31T17:02:56.860Z,4.75
2023-01-31T17:05:41.798Z,5.15
2023-01-31T17:08:26.545Z,4.79
2023-01-31T17:11:13.835Z,4.78
2023-01-31T17:14:01.775Z,4.91
2023-01-31T17:16:48.936Z,4.75
2023-01-31T17:19:35.368Z,4.85
2023-01-31T17:22:20.761Z,4.75
2023-01-31T17:25:07.332Z,4.60
2023-01-31T17:27:52.527Z,4.47
2023-01-31T17:30:37.566Z,4.48
2023-01-31T17:33:27.192Z,4.43
2023-01-31T17:36:12.442Z,4.50
2023-01-31T17:38:57.346Z,4.60
2023-01-31T17:41:42.210Z,4.53
2023-01-31T17:44:27.180Z,5.04
2023-01-31T17:47:16.250Z,5.05
2023-01-31T17:50:01.446Z,4.95
2023-01-31T17:52:47.609Z,4.86
2023-01-31T17:55:33.948Z,5.05
2023-01-31T17:58:19.378Z,5.00
2023-01-31T18:01:04.693Z,4.31
2023-01-31T18:03:51.474Z,4.55
2023-01-31T18:06:36.624Z,4.80
2023-01-31T18:09:21.436Z,4.89
2023-01-31T18:12:06.861Z,5.13
2023-01-31T18:14:51.704Z,5.26
2023-01-31T18:17:38.374Z,4.67
2023-01-31T18:20:23.488Z,4.36
2023-01-31T18:23:08.299Z,4.35
2023-01-31T18:25:53.148Z,4.49
2023-01-31T18:28:37.822Z,4.25
2023-01-31T18:31:25.481Z,4.48
2023-01-31T18:34:10.763Z,5.03
2023-01-31T18:36:56.908Z,4.17
2023-01-31T18:39:42.228Z,4.74
2023-01-31T18:42:27.121Z,4.97
2023-01-31T18:45:12.003Z,5.05
2023-01-31T18:47:56.841Z,5.05
2023-01-31T18:50:44.228Z,4.90
2023-01-31T18:53:29.394Z,4.69
2023-01-31T18:56:14.292Z,4.57
2023-01-31T18:59:00.915Z,4.70
2023-01-31T19:01:46.102Z,4.52
2023-01-31T19:04:33.307Z,4.96
2023-01-31T19:07:18.539Z,4.84
2023-01-31T19:10:03.497Z,4.53
2023-01-31T19:12:48.637Z,4.56
2023-01-31T19:15:33.699Z,4.61
2023-01-31T19:18:19.766Z,4.52
2023-01-31T19:21:05.047Z,4.84
2023-01-31T19:23:49.958Z,4.58
2023-01-31T19:26:35.004Z,4.45
2023-01-31T19:29:20.253Z,4.57
2023-01-31T19:32:06.329Z,4.67
2023-01-31T19:34:53.979Z,4.74
2023-01-31T19:37:42.255Z,4.70
2023-01-31T19:40:27.417Z,4.95
2023-01-31T19:43:18.197Z,4.71
2023-01-31T19:46:03.382Z,4.97
2023-01-31T19:48:48.283Z,4.82
2023-01-31T19:51:33.257Z,4.67
2023-01-31T19:54:18.142Z,4.80
2023-01-31T19:57:02.998Z,4.91
2023-01-31T19:59:47.864Z,4.91
2023-01-31T20:02:32.916Z,5.18
2023-01-31T20:05:17.606Z,4.86
2023-01-31T20:08:02.539Z,4.94
2023-01-31T20:10:51.627Z,4.73
2023-01-31T20:13:38.995Z,5.00
2023-01-31T20:16:24.110Z,5.33
2023-01-31T20:19:10.143Z,5.02
2023-01-31T20:22:00.148Z,4.92
2023-01-31T20:24:45.371Z,5.32
2023-01-31T20:27:33.134Z,4.90
2023-01-31T20:30:18.684Z,4.71
2023-01-31T20:33:04.039Z,4.67
2023-01-31T20:35:49.219Z,4.75
2023-01-31T20:38:34.438Z,5.20
2023-01-31T20:41:21.755Z,5.03
2023-01-31T20:44:07.080Z,4.79
2023-01-31T20:46:51.971Z,4.71
2023-01-31T20:49:36.999Z,4.73
2023-01-31T20:52:21.911Z,4.68
2023-01-31T20:55:09.722Z,4.65
2023-01-31T20:58:03.706Z,4.90
2023-01-31T21:00:49.086Z,4.77
2023-01-31T21:03:33.905Z,5.27
2023-01-31T21:06:18.763Z,5.03
2023-01-31T21:09:03.482Z,4.95
2023-01-31T21:11:48.492Z,5.17
2023-01-31T21:14:33.339Z,5.12
2023-01-31T21:17:27.492Z,4.85
2023-01-31T21:20:22.048Z,4.59
2023-01-31T21:23:07.146Z,4.74
2023-01-31T21:25:53.924Z,4.83
2023-01-31T21:28:39.217Z,4.83
2023-01-31T21:31:24.228Z,4.63
2023-01-31T21:34:09.186Z,5.03
2023-01-31T21:36:53.928Z,4.89
2023-01-31T21:39:38.846Z,4.67
2023-01-31T21:42:27.358Z,4.58
2023-01-31T21:45:13.794Z,4.87
2023-01-31T21:47:59.062Z,5.11
2023-01-31T21:51:08.275Z,4.67
2023-01-31T21:53:51.457Z,4.38
2023-01-31T21:56:37.659Z,4.69
2023-01-31T21:59:22.791Z,4.43
2023-01-31T22:02:10.481Z,4.46
2023-01-31T22:04:55.442Z,4.37
2023-01-31T22:07:49.613Z,4.45
2023-01-31T22:10:34.979Z,4.21
2023-01-31T22:13:21.737Z,4.63
2023-01-31T22:16:07.163Z,4.33
2023-01-31T22:18:52.067Z,4.38
2023-01-31T22:21:37.031Z,3.93
2023-01-31T22:24:24.327Z,4.12
2023-01-31T22:27:09.431Z,3.88
2023-01-31T22:29:58.618Z,4.09
2023-01-31T22:32:48.368Z,3.73
2023-01-31T22:35:33.222Z,3.78
2023-01-31T22:38:18.095Z,3.64
2023-01-31T22:41:03.118Z,3.30
2023-01-31T22:43:47.861Z,3.38
2023-01-31T22:46:32.929Z,3.55
2023-01-31T22:49:17.654Z,3.80
2023-01-31T22:52:04.803Z,3.53
2023-01-31T22:54:53.694Z,3.81
2023-01-31T22:57:38.963Z,3.41
2023-01-31T23:00:27.097Z,3.64
2023-01-31T23:03:15.315Z,3.78
2023-01-31T23:06:01.668Z,3.67
2023-01-31T23:08:46.848Z,3.75
2023-01-31T23:11:31.886Z,3.44
2023-01-31T23:14:18.328Z,2.95
2023-01-31T23:17:03.653Z,3.06
2023-01-31T23:19:48.512Z,3.27
2023-01-31T23:22:33.647Z,3.46
2023-01-31T23:25:20.887Z,3.50
2023-01-31T23:28:05.853Z,3.21
2023-01-31T23:30:51.029Z,3.21
2023-01-31T23:33:36.245Z,3.28
2023-01-31T23:36:21.054Z,3.41
2023-01-31T23:39:06.069Z,3.17
2023-01-31T23:41:50.887Z,3.34
2023-01-31T23:44:35.863Z,3.00
2023-01-31T23:47:21.977Z,2.82
2023-01-31T23:50:07.064Z,3.08
2023-01-31T23:52:53.153Z,2.82
2023-01-31T23:55:38.392Z,3.03
2023-01-31T23:58:30.737Z,2.70
